createdAt,value
2019-06-20T00:02:23.783Z,100438.58
2019-06-20T00:04:56.289Z,100441.03
2019-06-20T00:07:29.077Z,100436.97
2019-06-20T00:10:01.505Z,100441.42
2019-06-20T00:12:34.093Z,100437.77
2019-06-20T00:15:06.747Z,100440.02
2019-06-20T00:17:39.148Z,100437.77
2019-06-20T00:20:11.725Z,100436.94
2019-06-20T00:22:44.062Z,100440.16
2019-06-20T00:25:16.631Z,100434.28
2019-06-20T00:27:48.985Z,100430.03
2019-06-20T00:30:21.642Z,100429.20
2019-06-20T00:32:54.485Z,100431.03
2019-06-20T00:35:27.151Z,100427.37
2019-06-20T00:38:01.422Z,100427.37
2019-06-20T00:40:34.643Z,100421.50
2019-06-20T00:43:16.776Z,100420.49
2019-06-20T00:45:41.465Z,100423.32
2019-06-20T00:48:14.387Z,100420.66
2019-06-20T00:50:46.864Z,100422.48
2019-06-20T00:53:19.348Z,100421.28
2019-06-20T00:55:51.951Z,100415.20
2019-06-20T00:58:24.384Z,100416.41
2019-06-20T01:00:57.084Z,100417.20
2019-06-20T01:03:29.632Z,100428.13
2019-06-20T01:06:01.936Z,100426.88
2019-06-20T01:08:34.409Z,100427.50
2019-06-20T01:11:06.641Z,100427.26
2019-06-20T01:13:39.384Z,100424.44
2019-06-20T01:16:11.802Z,100430.50
2019-06-20T01:18:44.277Z,100423.60
2019-06-20T01:21:18.087Z,100421.60
2019-06-20T01:23:50.509Z,100414.94
2019-06-20T01:26:23.096Z,100413.12
2019-06-20T01:28:55.417Z,100413.31
2019-06-20T01:31:27.763Z,100412.07
2019-06-20T01:34:00.284Z,100410.86
2019-06-20T01:36:33.207Z,100417.93
2019-06-20T01:39:07.013Z,100415.52
2019-06-20T01:41:39.325Z,100422.96
2019-06-20T01:44:15.314Z,100421.75
2019-06-20T01:46:47.765Z,100414.47
2019-06-20T01:49:20.197Z,100419.13
2019-06-20T01:51:52.572Z,100420.13
2019-06-20T01:54:25.121Z,100431.05
2019-06-20T01:56:57.476Z,100435.45
2019-06-20T01:59:29.698Z,100435.25
2019-06-20T02:02:02.054Z,100434.66
2019-06-20T02:04:34.624Z,100438.05
2019-06-20T02:07:07.495Z,100441.50
2019-06-20T02:09:40.209Z,100433.61
2019-06-20T02:12:12.541Z,100440.67
2019-06-20T02:14:45.071Z,100439.05
2019-06-20T02:17:17.640Z,100438.05
2019-06-20T02:19:50.324Z,100439.25
2019-06-20T02:22:23.054Z,100438.83
2019-06-20T02:24:55.237Z,100446.30
2019-06-20T02:27:27.864Z,100443.05
2019-06-20T02:30:00.473Z,100441.22
2019-06-20T02:32:33.152Z,100451.33
2019-06-20T02:35:05.664Z,100452.53
2019-06-20T02:37:38.590Z,100450.91
2019-06-20T02:40:12.671Z,100455.95
2019-06-20T02:42:45.175Z,100461.19
2019-06-20T02:45:17.845Z,100456.53
2019-06-20T02:47:50.129Z,100458.34
2019-06-20T02:50:22.706Z,100458.94
2019-06-20T02:52:55.511Z,100459.55
2019-06-20T02:55:29.518Z,100458.55
2019-06-20T02:58:03.421Z,100458.33
2019-06-20T03:00:58.327Z,100458.92
2019-06-20T03:03:31.360Z,100458.33
2019-06-20T03:06:03.802Z,100457.92
2019-06-20T03:08:36.241Z,100456.73
2019-06-20T03:11:08.642Z,100461.39
2019-06-20T03:13:41.323Z,100459.97
2019-06-20T03:16:13.816Z,100456.12
2019-06-20T03:18:48.387Z,100455.75
2019-06-20T03:21:20.648Z,100459.00
2019-06-20T03:23:53.156Z,100464.67
2019-06-20T03:26:26.108Z,100473.16
2019-06-20T03:28:58.455Z,100477.42
2019-06-20T03:31:31.261Z,100480.87
2019-06-20T03:34:03.621Z,100486.55
2019-06-20T03:36:36.344Z,100482.32
2019-06-20T03:39:10.226Z,100492.45
2019-06-20T03:41:42.723Z,100489.42
2019-06-20T03:44:15.055Z,100487.22
2019-06-20T03:46:47.335Z,100494.52
2019-06-20T03:49:19.757Z,100495.14
2019-06-20T03:51:52.025Z,100493.74
2019-06-20T03:54:24.978Z,100497.23
2019-06-20T03:56:57.796Z,100502.28
2019-06-20T03:59:30.421Z,100498.68
2019-06-20T04:02:03.063Z,100499.31
2019-06-20T04:04:35.383Z,100506.03
2019-06-20T04:07:07.884Z,100508.05
2019-06-20T04:09:40.168Z,100506.05
2019-06-20T04:12:12.643Z,100512.72
2019-06-20T04:14:44.972Z,100505.69
2019-06-20T04:17:17.478Z,100505.11
2019-06-20T04:19:49.683Z,100511.81
2019-06-20T04:22:21.836Z,100507.78
2019-06-20T04:24:54.079Z,100511.23
2019-06-20T04:27:26.354Z,100511.44
2019-06-20T04:29:58.668Z,100509.84
2019-06-20T04:32:30.928Z,100508.02
2019-06-20T04:35:03.206Z,100518.34
2019-06-20T04:37:35.452Z,100509.69
2019-06-20T04:40:09.667Z,100521.20
2019-06-20T04:42:42.242Z,100518.58
2019-06-20T04:45:35.532Z,100519.37
2019-06-20T04:48:05.621Z,100518.77
2019-06-20T04:50:38.421Z,100513.69
2019-06-20T04:53:10.620Z,100513.66
2019-06-20T04:55:42.943Z,100513.42
2019-06-20T04:58:15.797Z,100511.39
2019-06-20T05:00:56.043Z,100512.17
2019-06-20T05:03:28.515Z,100508.51
2019-06-20T05:06:00.761Z,100508.08
2019-06-20T05:08:37.310Z,100512.12
2019-06-20T05:11:09.631Z,100517.11
2019-06-20T05:13:42.011Z,100512.45
2019-06-20T05:16:14.421Z,100504.38
2019-06-20T05:18:46.702Z,100505.09
2019-06-20T05:21:22.548Z,100512.70
2019-06-20T05:23:55.005Z,100513.20
2019-06-20T05:26:27.617Z,100509.55
2019-06-20T05:28:59.893Z,100509.23
2019-06-20T05:31:32.137Z,100504.92
2019-06-20T05:34:04.975Z,100508.98
2019-06-20T05:36:37.338Z,100497.45
2019-06-20T05:39:10.374Z,100501.20
2019-06-20T05:41:42.632Z,100496.72
2019-06-20T05:44:15.128Z,100500.47
2019-06-20T05:46:47.360Z,100507.28
2019-06-20T05:49:19.917Z,100509.78
2019-06-20T05:51:52.263Z,100504.81
2019-06-20T05:54:24.818Z,100508.41
2019-06-20T05:56:57.255Z,100507.33
2019-06-20T05:59:29.713Z,100506.16
2019-06-20T06:02:01.951Z,100506.33
2019-06-20T06:04:34.433Z,100510.35
2019-06-20T06:07:06.711Z,100506.03
2019-06-20T06:09:39.626Z,100506.30
2019-06-20T06:12:12.697Z,100511.08
2019-06-20T06:14:45.446Z,100512.59
2019-06-20T06:17:17.862Z,100509.49
2019-06-20T06:19:50.820Z,100504.47
2019-06-20T06:22:23.397Z,100505.77
2019-06-20T06:24:56.333Z,100510.89
2019-06-20T06:27:29.037Z,100515.43
2019-06-20T06:30:01.915Z,100511.83
2019-06-20T06:32:40.172Z,100510.89
2019-06-20T06:35:09.644Z,100507.30
2019-06-20T06:37:41.905Z,100503.10
2019-06-20T06:40:17.524Z,100499.82
2019-06-20T06:42:51.859Z,100499.86
2019-06-20T06:45:24.701Z,100498.27
2019-06-20T06:47:57.113Z,100501.97
2019-06-20T06:50:30.253Z,100502.67
2019-06-20T06:53:02.912Z,100505.31
2019-06-20T06:55:36.009Z,100499.27
2019-06-20T06:58:08.877Z,100499.81
2019-06-20T07:00:41.988Z,100503.70
2019-06-20T07:03:14.516Z,100512.31
2019-06-20T07:05:46.953Z,100505.85
2019-06-20T07:08:19.248Z,100507.47
2019-06-20T07:10:51.562Z,100510.70
2019-06-20T07:13:23.878Z,100501.77
2019-06-20T07:15:56.262Z,100504.21
2019-06-20T07:18:28.531Z,100502.33
2019-06-20T07:21:00.758Z,100501.21
2019-06-20T07:23:33.088Z,100494.33
2019-06-20T07:26:05.540Z,100498.94
2019-06-20T07:28:38.066Z,100497.03
2019-06-20T07:31:10.411Z,100486.36
2019-06-20T07:33:42.741Z,100489.28
2019-06-20T07:36:15.265Z,100491.76
2019-06-20T07:38:47.600Z,100488.52
2019-06-20T07:41:19.850Z,100482.98
2019-06-20T07:43:52.119Z,100481.82
2019-06-20T07:46:24.381Z,100481.41
2019-06-20T07:48:56.998Z,100477.50
2019-06-20T07:51:29.333Z,100474.18
2019-06-20T07:54:01.677Z,100477.42
2019-06-20T07:56:34.358Z,100473.82
2019-06-20T07:59:06.784Z,100474.61
2019-06-20T08:01:39.145Z,100478.30
2019-06-20T08:04:11.702Z,100478.48
2019-06-20T08:06:44.296Z,100481.97
2019-06-20T08:09:16.691Z,100478.13
2019-06-20T08:11:48.994Z,100477.06
2019-06-20T08:14:21.299Z,100474.13
2019-06-20T08:16:53.826Z,100479.94
2019-06-20T08:19:26.174Z,100479.25
2019-06-20T08:21:58.549Z,100472.38
2019-06-20T08:24:30.930Z,100473.12
2019-06-20T08:27:04.808Z,100466.59
2019-06-20T08:29:37.206Z,100467.72
2019-06-20T08:32:09.999Z,100461.80
2019-06-20T08:34:42.355Z,100466.85
2019-06-20T08:37:14.787Z,100461.11
2019-06-20T08:39:47.416Z,100461.94
2019-06-20T08:42:20.609Z,100462.86
2019-06-20T08:44:56.212Z,100464.25
2019-06-20T08:47:27.915Z,100459.91
2019-06-20T08:50:01.412Z,100455.42
2019-06-20T08:52:56.055Z,100455.98
2019-06-20T08:55:29.020Z,100460.87
2019-06-20T08:58:03.434Z,100452.50
2019-06-20T09:00:37.800Z,100453.00
2019-06-20T09:03:10.558Z,100454.26
2019-06-20T09:05:43.146Z,100445.52
2019-06-20T09:08:15.648Z,100445.77
2019-06-20T09:10:48.167Z,100454.37
2019-06-20T09:13:20.736Z,100454.86
2019-06-20T09:15:54.747Z,100445.05
2019-06-20T09:18:27.120Z,100444.34
2019-06-20T09:21:00.302Z,100444.97
2019-06-20T09:23:35.607Z,100452.14
2019-06-20T09:26:06.580Z,100447.01
2019-06-20T09:28:39.337Z,100438.53
2019-06-20T09:31:11.548Z,100443.01
2019-06-20T09:33:44.180Z,100448.83
2019-06-20T09:36:16.434Z,100440.06
2019-06-20T09:38:48.778Z,100438.45
2019-06-20T09:41:21.795Z,100444.95
2019-06-20T09:43:54.272Z,100435.68
2019-06-20T09:46:26.580Z,100442.01
2019-06-20T09:48:59.407Z,100444.78
2019-06-20T09:51:31.975Z,100438.60
2019-06-20T09:54:04.272Z,100436.98
2019-06-20T09:56:36.584Z,100434.41
2019-06-20T09:59:09.369Z,100437.78
2019-06-20T10:01:41.777Z,100450.19
2019-06-20T10:04:14.515Z,100442.11
2019-06-20T10:06:47.417Z,100435.03
2019-06-20T10:09:20.901Z,100427.23
2019-06-20T10:11:54.114Z,100424.94
2019-06-20T10:14:27.030Z,100431.17
2019-06-20T10:16:59.338Z,100427.70
2019-06-20T10:19:31.737Z,100423.42
2019-06-20T10:22:04.274Z,100421.45
2019-06-20T10:24:36.569Z,100419.87
2019-06-20T10:27:09.136Z,100422.27
2019-06-20T10:29:42.155Z,100419.69
2019-06-20T10:32:15.735Z,100420.11
2019-06-20T10:34:48.396Z,100422.59
2019-06-20T10:37:20.719Z,100422.17
2019-06-20T10:39:53.132Z,100417.70
2019-06-20T10:42:27.831Z,100425.22
2019-06-20T10:45:00.060Z,100418.86
2019-06-20T10:47:36.043Z,100423.97
2019-06-20T10:50:08.168Z,100426.11
2019-06-20T10:52:41.170Z,100423.88
2019-06-20T10:55:14.617Z,100422.09
2019-06-20T10:57:47.066Z,100422.09
2019-06-20T11:00:30.259Z,100418.69
2019-06-20T11:02:54.899Z,100423.43
2019-06-20T11:05:27.363Z,100417.44
2019-06-20T11:08:00.718Z,100419.50
2019-06-20T11:10:33.823Z,100421.35
2019-06-20T11:13:06.256Z,100420.01
2019-06-20T11:15:39.282Z,100418.40
2019-06-20T11:18:12.804Z,100419.41
2019-06-20T11:20:48.683Z,100428.08
2019-06-20T11:23:21.305Z,100409.82
2019-06-20T11:25:53.568Z,100406.63
2019-06-20T11:28:25.855Z,100420.92
2019-06-20T11:31:00.557Z,100416.34
2019-06-20T11:33:32.183Z,100410.50
2019-06-20T11:36:04.451Z,100409.58
2019-06-20T11:38:36.666Z,100410.27
2019-06-20T11:41:08.951Z,100417.07
2019-06-20T11:43:42.231Z,100406.52
2019-06-20T11:46:14.623Z,100408.73
2019-06-20T11:48:47.111Z,100409.92
2019-06-20T11:51:19.570Z,100417.17
2019-06-20T11:53:51.871Z,100415.30
2019-06-20T11:56:24.201Z,100408.78
2019-06-20T11:58:56.422Z,100407.36
2019-06-20T12:01:32.836Z,100403.08
2019-06-20T12:04:02.678Z,100404.84
2019-06-20T12:06:35.188Z,100409.95
2019-06-20T12:09:09.991Z,100407.70
2019-06-20T12:11:42.446Z,100406.27
2019-06-20T12:14:14.932Z,100416.45
2019-06-20T12:16:48.627Z,100410.82
2019-06-20T12:19:21.376Z,100416.89
2019-06-20T12:21:53.746Z,100408.58
2019-06-20T12:24:26.222Z,100416.67
2019-06-20T12:26:58.794Z,100412.79
2019-06-20T12:29:31.004Z,100407.08
2019-06-20T12:32:03.413Z,100406.58
2019-06-20T12:34:35.643Z,100400.59
2019-06-20T12:37:07.912Z,100398.19
2019-06-20T12:39:40.366Z,100392.48
2019-06-20T12:42:14.343Z,100390.59
2019-06-20T12:44:48.055Z,100398.11
2019-06-20T12:47:21.247Z,100388.35
2019-06-20T12:49:53.653Z,100392.11
2019-06-20T12:52:25.926Z,100395.66
2019-06-20T12:54:58.270Z,100395.44
2019-06-20T12:57:30.784Z,100391.17
2019-06-20T13:00:05.509Z,100398.88
2019-06-20T13:02:40.425Z,100401.97
2019-06-20T13:05:13.857Z,100396.33
2019-06-20T13:07:46.576Z,100393.73
2019-06-20T13:10:20.002Z,100397.69
2019-06-20T13:12:52.199Z,100399.11
2019-06-20T13:15:24.466Z,100398.84
2019-06-20T13:17:56.815Z,100392.58
2019-06-20T13:20:29.167Z,100391.79
2019-06-20T13:23:01.497Z,100395.44
2019-06-20T13:25:33.699Z,100391.08
2019-06-20T13:28:06.200Z,100385.48
2019-06-20T13:30:40.286Z,100387.66
2019-06-20T13:33:12.973Z,100394.34
2019-06-20T13:35:45.614Z,100394.68
2019-06-20T13:38:17.960Z,100393.52
2019-06-20T13:40:50.360Z,100393.03
2019-06-20T13:43:22.895Z,100397.20
2019-06-20T13:45:55.196Z,100393.48
2019-06-20T13:48:27.462Z,100387.58
2019-06-20T13:51:00.132Z,100394.03
2019-06-20T13:53:32.501Z,100393.53
2019-06-20T13:56:05.054Z,100390.25
2019-06-20T13:58:37.395Z,100395.11
2019-06-20T14:01:09.924Z,100393.37
2019-06-20T14:03:44.058Z,100393.05
2019-06-20T14:06:16.583Z,100397.17
2019-06-20T14:08:50.244Z,100387.07
2019-06-20T14:11:22.725Z,100382.86
2019-06-20T14:13:55.326Z,100394.07
2019-06-20T14:16:27.501Z,100396.41
2019-06-20T14:18:59.892Z,100391.81
2019-06-20T14:21:32.090Z,100393.36
2019-06-20T14:24:04.572Z,100387.34
2019-06-20T14:26:37.185Z,100387.21
2019-06-20T14:29:09.419Z,100389.92
2019-06-20T14:31:42.624Z,100395.05
2019-06-20T14:34:16.285Z,100384.72
2019-06-20T14:36:50.507Z,100388.06
2019-06-20T14:39:22.880Z,100391.62
2019-06-20T14:41:56.400Z,100389.87
2019-06-20T14:44:29.026Z,100391.95
2019-06-20T14:47:03.295Z,100392.83
2019-06-20T14:49:36.651Z,100389.34
2019-06-20T14:52:09.395Z,100391.20
2019-06-20T14:54:44.001Z,100387.15
2019-06-20T14:57:16.166Z,100382.93
2019-06-20T14:59:49.875Z,100385.04
2019-06-20T15:02:34.622Z,100386.52
2019-06-20T15:04:57.035Z,100382.45
2019-06-20T15:07:29.500Z,100385.94
2019-06-20T15:10:03.821Z,100379.22
2019-06-20T15:12:36.300Z,100382.89
2019-06-20T15:15:09.481Z,100388.59
2019-06-20T15:17:42.261Z,100381.08
2019-06-20T15:20:16.273Z,100380.31
2019-06-20T15:22:49.370Z,100380.12
2019-06-20T15:25:22.951Z,100383.95
2019-06-20T15:27:57.030Z,100377.27
2019-06-20T15:30:29.921Z,100378.69
2019-06-20T15:33:09.933Z,100381.73
2019-06-20T15:35:37.175Z,100378.89
2019-06-20T15:38:09.715Z,100381.75
2019-06-20T15:40:42.169Z,100382.63
2019-06-20T15:43:14.549Z,100385.68
2019-06-20T15:45:48.405Z,100384.09
2019-06-20T15:48:21.154Z,100377.82
2019-06-20T15:50:53.847Z,100376.01
2019-06-20T15:53:26.316Z,100377.05
2019-06-20T15:55:58.940Z,100376.85
2019-06-20T15:58:31.488Z,100369.78
2019-06-20T16:01:03.890Z,100376.90
2019-06-20T16:03:36.348Z,100375.52
2019-06-20T16:06:08.872Z,100378.84
2019-06-20T16:08:41.443Z,100384.15
2019-06-20T16:11:14.198Z,100387.04
2019-06-20T16:13:49.406Z,100374.09
2019-06-20T16:16:21.093Z,100383.66
2019-06-20T16:18:53.694Z,100380.85
2019-06-20T16:21:30.968Z,100383.72
2019-06-20T16:24:03.594Z,100380.36
2019-06-20T16:26:36.519Z,100378.75
2019-06-20T16:29:09.157Z,100374.96
2019-06-20T16:31:41.825Z,100383.33
2019-06-20T16:34:14.256Z,100380.93
2019-06-20T16:36:46.628Z,100386.45
2019-06-20T16:39:18.894Z,100382.03
2019-06-20T16:41:51.470Z,100382.70
2019-06-20T16:44:24.971Z,100385.18
2019-06-20T16:46:57.919Z,100380.95
2019-06-20T16:49:30.561Z,100376.93
2019-06-20T16:52:03.491Z,100379.41
2019-06-20T16:54:36.079Z,100384.92
2019-06-20T16:57:08.880Z,100375.24
2019-06-20T16:59:41.128Z,100376.50
2019-06-20T17:02:13.392Z,100381.38
2019-06-20T17:04:46.139Z,100380.39
2019-06-20T17:07:18.492Z,100382.04
2019-06-20T17:09:50.916Z,100380.02
2019-06-20T17:12:23.245Z,100390.78
2019-06-20T17:14:55.546Z,100389.19
2019-06-20T17:17:28.744Z,100395.92
2019-06-20T17:20:01.026Z,100396.34
2019-06-20T17:22:33.739Z,100386.80
2019-06-20T17:25:07.061Z,100381.75
2019-06-20T17:27:39.552Z,100389.05
2019-06-20T17:30:13.933Z,100391.69
2019-06-20T17:32:46.287Z,100393.90
2019-06-20T17:35:19.294Z,100396.96
2019-06-20T17:37:51.727Z,100399.00
2019-06-20T17:40:24.884Z,100403.06
2019-06-20T17:42:57.155Z,100399.59
2019-06-20T17:45:30.071Z,100398.18
2019-06-20T17:48:02.711Z,100402.86
2019-06-20T17:50:36.020Z,100406.72
2019-06-20T17:53:08.434Z,100410.78
2019-06-20T17:55:41.005Z,100406.12
2019-06-20T17:58:13.509Z,100416.91
2019-06-20T18:00:45.999Z,100420.95
2019-06-20T18:03:18.305Z,100421.98
2019-06-20T18:05:50.967Z,100419.56
2019-06-20T18:08:23.473Z,100424.41
2019-06-20T18:10:55.807Z,100427.25
2019-06-20T18:13:28.510Z,100434.97
2019-06-20T18:16:00.873Z,100436.98
2019-06-20T18:18:33.369Z,100438.83
2019-06-20T18:21:07.008Z,100439.42
2019-06-20T18:23:39.594Z,100441.69
2019-06-20T18:26:11.906Z,100443.49
2019-06-20T18:28:44.238Z,100451.01
2019-06-20T18:31:16.853Z,100455.69
2019-06-20T18:33:49.447Z,100460.33
2019-06-20T18:36:21.987Z,100460.77
2019-06-20T18:38:54.356Z,100462.80
2019-06-20T18:41:26.764Z,100462.81
2019-06-20T18:43:58.938Z,100457.95
2019-06-20T18:46:31.375Z,100466.88
2019-06-20T18:49:03.700Z,100472.74
2019-06-20T18:51:40.275Z,100466.08
2019-06-20T18:54:12.568Z,100459.38
2019-06-20T18:56:45.115Z,100456.12
2019-06-20T18:59:17.381Z,100460.59
2019-06-20T19:01:50.008Z,100462.41
2019-06-20T19:04:22.253Z,100462.81
2019-06-20T19:06:54.642Z,100457.73
2019-06-20T19:09:26.814Z,100456.94
2019-06-20T19:12:01.188Z,100458.78
2019-06-20T19:14:34.092Z,100459.38
2019-06-20T19:17:06.679Z,100450.66
2019-06-20T19:19:39.392Z,100454.12
2019-06-20T19:22:11.958Z,100452.28
2019-06-20T19:24:44.372Z,100453.50
2019-06-20T19:27:16.783Z,100452.91
2019-06-20T19:29:49.852Z,100453.50
2019-06-20T19:32:22.439Z,100451.67
2019-06-20T19:35:02.212Z,100456.75
2019-06-20T19:37:29.196Z,100454.51
2019-06-20T19:40:01.979Z,100458.58
2019-06-20T19:42:34.324Z,100456.33
2019-06-20T19:45:07.645Z,100455.12
2019-06-20T19:47:40.102Z,100452.70
2019-06-20T19:50:13.153Z,100451.88
2019-06-20T19:52:45.459Z,100448.46
2019-06-20T19:55:18.638Z,100447.23
2019-06-20T19:57:51.002Z,100449.69
2019-06-20T20:00:23.818Z,100453.94
2019-06-20T20:02:56.617Z,100445.62
2019-06-20T20:05:29.694Z,100450.09
2019-06-20T20:08:02.452Z,100448.47
2019-06-20T20:10:50.782Z,100444.02
2019-06-20T20:13:23.018Z,100450.51
2019-06-20T20:15:55.462Z,100445.43
2019-06-20T20:18:27.687Z,100446.25
2019-06-20T20:21:00.002Z,100446.84
2019-06-20T20:23:32.290Z,100443.42
2019-06-20T20:26:07.743Z,100440.59
2019-06-20T20:28:40.534Z,100448.49
2019-06-20T20:31:13.002Z,100450.72
2019-06-20T20:33:46.913Z,100465.31
2019-06-20T20:36:24.757Z,100452.14
2019-06-20T20:38:55.121Z,100453.36
2019-06-20T20:41:27.821Z,100444.45
2019-06-20T20:44:00.250Z,100441.23
2019-06-20T20:46:32.425Z,100438.79
2019-06-20T20:49:04.610Z,100439.41
2019-06-20T20:51:37.025Z,100444.88
2019-06-20T20:54:09.443Z,100444.67
2019-06-20T20:56:41.639Z,100449.94
2019-06-20T20:59:13.880Z,100445.27
2019-06-20T21:01:46.163Z,100444.89
2019-06-20T21:04:18.528Z,100433.15
2019-06-20T21:06:50.939Z,100433.94
2019-06-20T21:09:23.170Z,100431.11
2019-06-20T21:11:55.991Z,100432.52
2019-06-20T21:14:28.638Z,100432.14
2019-06-20T21:17:01.175Z,100434.35
2019-06-20T21:19:33.350Z,100431.09
2019-06-20T21:22:06.331Z,100426.67
2019-06-20T21:24:38.734Z,100430.92
2019-06-20T21:27:11.179Z,100435.35
2019-06-20T21:29:43.667Z,100426.05
2019-06-20T21:32:16.252Z,100423.84
2019-06-20T21:34:48.518Z,100425.84
2019-06-20T21:37:22.245Z,100415.92
2019-06-20T21:39:54.730Z,100415.92
2019-06-20T21:42:27.017Z,100416.55
2019-06-20T21:44:59.337Z,100411.89
2019-06-20T21:47:31.782Z,100414.94
2019-06-20T21:50:04.188Z,100412.25
2019-06-20T21:52:36.460Z,100410.63
2019-06-20T21:55:10.418Z,100415.09
2019-06-20T21:57:42.760Z,100411.06
2019-06-20T22:00:23.853Z,100415.32
2019-06-20T22:02:56.442Z,100419.78
2019-06-20T22:05:28.719Z,100414.92
2019-06-20T22:08:00.965Z,100419.96
2019-06-20T22:10:33.459Z,100417.13
2019-06-20T22:13:06.308Z,100417.33
2019-06-20T22:15:39.083Z,100415.53
2019-06-20T22:18:11.592Z,100419.16
2019-06-20T22:20:43.984Z,100416.13
2019-06-20T22:23:16.300Z,100414.30
2019-06-20T22:25:51.923Z,100424.01
2019-06-20T22:28:24.758Z,100429.50
2019-06-20T22:30:57.963Z,100423.84
2019-06-20T22:33:30.089Z,100421.00
2019-06-20T22:36:02.483Z,100429.09
2019-06-20T22:38:35.039Z,100424.42
2019-06-20T22:41:08.101Z,100421.59
2019-06-20T22:43:40.465Z,100421.59
2019-06-20T22:46:12.833Z,100414.12
2019-06-20T22:48:45.391Z,100415.91
2019-06-20T22:51:17.587Z,100410.86
2019-06-20T22:53:49.847Z,100403.36
2019-06-20T22:56:22.326Z,100401.74
2019-06-20T22:58:54.865Z,100408.03
2019-06-20T23:01:27.102Z,100401.16
2019-06-20T23:03:59.532Z,100403.59
2019-06-20T23:06:31.950Z,100406.01
2019-06-20T23:09:05.366Z,100405.42
2019-06-20T23:11:38.044Z,100406.63
2019-06-20T23:14:10.256Z,100400.97
2019-06-20T23:16:42.854Z,100400.97
2019-06-20T23:19:15.322Z,100411.67
2019-06-20T23:21:48.803Z,100412.50
2019-06-20T23:24:21.235Z,100407.84
2019-06-20T23:26:53.568Z,100409.05
2019-06-20T23:29:26.197Z,100412.67
2019-06-20T23:31:58.824Z,100401.76
2019-06-20T23:34:31.305Z,100411.27
2019-06-20T23:37:12.649Z,100408.02
2019-06-20T23:39:38.077Z,100407.85
2019-06-20T23:42:10.534Z,100411.27
2019-06-20T23:44:42.766Z,100406.43
2019-06-20T23:47:15.346Z,100409.44
2019-06-20T23:49:47.688Z,100404.39
2019-06-20T23:52:22.603Z,100409.05
2019-06-20T23:54:54.853Z,100402.56
2019-06-20T23:57:27.125Z,100404.80
2019-06-20T23:59:59.752Z,100406.22
